createdAt,value
2022-08-04T00:00:07.185Z,50.75
2022-08-04T00:01:24.901Z,50.74
2022-08-04T00:02:30.443Z,50.69
2022-08-04T00:05:06.910Z,50.77
2022-08-04T00:06:39.632Z,50.70
2022-08-04T00:08:02.469Z,50.74
2022-08-04T00:10:22.301Z,50.75
2022-08-04T00:11:26.363Z,50.82
2022-08-04T00:12:31.427Z,50.88
2022-08-04T00:13:36.556Z,50.82
2022-08-04T00:14:42.989Z,50.90
2022-08-04T00:15:45.201Z,50.86
2022-08-04T00:16:47.549Z,50.83
2022-08-04T00:17:56.257Z,50.93
2022-08-04T00:20:25.839Z,50.88
2022-08-04T00:21:29.000Z,50.89
2022-08-04T00:22:31.553Z,50.91
2022-08-04T00:24:10.986Z,50.86
2022-08-04T00:24:39.535Z,50.91
2022-08-04T00:25:41.974Z,50.87
2022-08-04T00:26:45.328Z,50.83
2022-08-04T00:27:48.456Z,50.72
2022-08-04T00:28:51.194Z,50.66
2022-08-04T00:29:53.952Z,50.71
2022-08-04T00:30:56.725Z,50.63
2022-08-04T00:32:00.151Z,50.70
2022-08-04T00:33:02.870Z,50.66
2022-08-04T00:34:05.230Z,50.65
2022-08-04T00:36:21.320Z,50.59
2022-08-04T00:37:25.160Z,50.54
2022-08-04T00:38:27.566Z,50.58
2022-08-04T00:39:30.528Z,50.52
2022-08-04T00:42:58.624Z,50.44
2022-08-04T00:44:06.157Z,50.47
2022-08-04T00:45:19.005Z,50.34
2022-08-04T00:46:41.071Z,50.34
2022-08-04T00:47:49.798Z,50.33
2022-08-04T00:49:05.068Z,50.40
2022-08-04T00:52:32.253Z,50.47
2022-08-04T00:53:11.345Z,50.55
2022-08-04T00:54:23.780Z,50.48
2022-08-04T00:55:45.993Z,50.55
2022-08-04T00:57:04.747Z,50.58
2022-08-04T00:58:40.727Z,50.60
2022-08-04T01:00:06.776Z,50.48
2022-08-04T01:02:28.080Z,50.59
2022-08-04T01:05:12.149Z,50.75
2022-08-04T01:06:18.917Z,50.77
2022-08-04T01:07:30.459Z,50.72
2022-08-04T01:10:30.286Z,50.76
2022-08-04T01:11:57.124Z,50.71
2022-08-04T01:13:07.803Z,50.76
2022-08-04T01:14:22.829Z,50.86
2022-08-04T01:17:22.564Z,50.88
2022-08-04T01:19:44.558Z,50.91
2022-08-04T01:22:35.493Z,50.97
2022-08-04T01:25:39.101Z,50.92
2022-08-04T01:27:01.427Z,50.83
2022-08-04T01:28:26.298Z,50.85
2022-08-04T01:30:42.687Z,50.90
2022-08-04T01:31:54.609Z,51.06
2022-08-04T01:33:02.210Z,51.13
2022-08-04T01:34:06.068Z,51.05
2022-08-04T01:36:27.095Z,51.16
2022-08-04T01:37:39.465Z,51.07
2022-08-04T01:38:42.314Z,51.10
2022-08-04T01:41:09.896Z,51.02
2022-08-04T01:42:31.989Z,50.96
2022-08-04T01:43:18.279Z,50.96
2022-08-04T01:44:20.677Z,50.92
2022-08-04T01:45:24.400Z,50.89
2022-08-04T01:46:27.161Z,50.83
2022-08-04T01:47:30.020Z,50.84
2022-08-04T01:48:33.090Z,50.79
2022-08-04T01:49:40.805Z,50.77
2022-08-04T01:50:41.706Z,50.79
2022-08-04T01:51:44.577Z,50.74
2022-08-04T01:52:51.167Z,50.79
2022-08-04T01:53:53.320Z,50.66
2022-08-04T01:54:56.178Z,50.69
2022-08-04T01:55:58.605Z,50.65
2022-08-04T01:57:01.309Z,50.58
2022-08-04T01:58:06.581Z,50.59
2022-08-04T01:59:09.304Z,50.56
2022-08-04T02:00:16.371Z,50.51
2022-08-04T02:01:18.627Z,50.51
2022-08-04T02:02:24.735Z,50.44
2022-08-04T02:04:21.183Z,50.47
2022-08-04T02:04:36.070Z,50.45
2022-08-04T02:06:03.930Z,50.39
2022-08-04T02:07:04.959Z,50.36
2022-08-04T02:08:13.966Z,50.35
2022-08-04T02:09:54.651Z,50.35
2022-08-04T02:11:08.263Z,50.34
2022-08-04T02:12:16.071Z,50.42
2022-08-04T02:13:28.452Z,50.42
2022-08-04T02:14:40.153Z,50.39
2022-08-04T02:16:02.564Z,50.45
2022-08-04T02:17:09.628Z,50.42
2022-08-04T02:18:21.625Z,50.38
2022-08-04T02:19:35.289Z,50.39
2022-08-04T02:20:38.631Z,50.45
2022-08-04T02:21:42.485Z,50.45
2022-08-04T02:22:48.582Z,50.46
2022-08-04T02:23:53.393Z,50.47
2022-08-04T02:25:00.606Z,50.42
2022-08-04T02:26:05.000Z,50.48
2022-08-04T02:27:07.323Z,50.49
2022-08-04T02:28:13.192Z,50.44
2022-08-04T02:29:21.593Z,50.40
2022-08-04T02:30:27.942Z,50.43
2022-08-04T02:31:32.857Z,50.36
2022-08-04T02:32:36.357Z,50.33
2022-08-04T02:33:44.454Z,50.34
2022-08-04T02:35:02.704Z,50.34
2022-08-04T02:36:06.101Z,50.30
2022-08-04T02:37:08.560Z,50.32
2022-08-04T02:38:25.266Z,50.33
2022-08-04T02:39:24.582Z,50.33
2022-08-04T02:40:26.984Z,50.29
2022-08-04T02:41:30.080Z,50.31
2022-08-04T02:42:32.814Z,50.36
2022-08-04T02:43:51.758Z,50.27
2022-08-04T02:44:40.437Z,50.29
2022-08-04T02:45:42.735Z,50.32
2022-08-04T02:46:45.667Z,50.31
2022-08-04T02:48:30.989Z,50.28
2022-08-04T02:49:12.426Z,50.29
2022-08-04T02:50:25.389Z,50.30
2022-08-04T02:52:45.208Z,50.28
2022-08-04T02:53:49.610Z,50.29
2022-08-04T02:54:54.263Z,50.26
2022-08-04T02:55:56.742Z,50.24
2022-08-04T02:56:59.899Z,50.24
2022-08-04T02:58:03.346Z,50.24
2022-08-04T02:59:07.565Z,50.29
2022-08-04T03:00:12.588Z,50.29
2022-08-04T03:01:16.573Z,50.26
2022-08-04T03:02:22.328Z,50.29
2022-08-04T03:03:28.849Z,50.30
2022-08-04T03:04:40.675Z,50.28
2022-08-04T03:06:10.155Z,50.24
2022-08-04T03:07:25.408Z,50.26
2022-08-04T03:08:58.922Z,50.26
2022-08-04T03:10:23.964Z,50.27
2022-08-04T03:11:38.877Z,50.31
2022-08-04T03:13:05.507Z,50.33
2022-08-04T03:16:01.361Z,50.54
2022-08-04T03:18:39.030Z,50.76
2022-08-04T03:20:18.818Z,50.77
2022-08-04T03:21:48.706Z,50.85
2022-08-04T03:23:14.741Z,50.83
2022-08-04T03:26:08.901Z,50.92
2022-08-04T03:27:38.064Z,50.89
2022-08-04T03:29:23.607Z,50.98
2022-08-04T03:32:27.449Z,51.08
2022-08-04T03:34:05.548Z,51.10
2022-08-04T03:35:31.982Z,51.15
2022-08-04T03:36:38.746Z,51.11
2022-08-04T03:38:11.002Z,51.14
2022-08-04T03:39:44.714Z,51.19
2022-08-04T03:41:18.706Z,51.12
2022-08-04T03:44:07.251Z,51.24
2022-08-04T03:45:23.633Z,51.27
2022-08-04T03:46:47.817Z,51.21
2022-08-04T03:48:11.896Z,51.27
2022-08-04T03:49:41.083Z,51.30
2022-08-04T03:50:56.140Z,51.28
2022-08-04T03:52:08.232Z,51.27
2022-08-04T03:53:26.976Z,51.26
2022-08-04T03:54:39.368Z,51.21
2022-08-04T03:56:20.603Z,51.31
2022-08-04T03:57:32.287Z,51.35
2022-08-04T03:58:57.532Z,51.39
2022-08-04T04:00:07.485Z,51.46
2022-08-04T04:02:01.242Z,51.44
2022-08-04T04:03:10.966Z,51.43
2022-08-04T04:04:35.042Z,51.44
2022-08-04T04:06:00.297Z,51.43
2022-08-04T04:07:27.229Z,51.42
2022-08-04T04:08:39.161Z,51.44
2022-08-04T04:11:21.873Z,51.47
2022-08-04T04:12:46.604Z,51.53
2022-08-04T04:14:07.751Z,51.53
2022-08-04T04:15:36.245Z,51.52
2022-08-04T04:16:59.392Z,51.48
2022-08-04T04:18:41.062Z,51.40
2022-08-04T04:19:58.549Z,51.40
2022-08-04T04:21:15.290Z,51.37
2022-08-04T04:22:39.570Z,51.31
2022-08-04T04:24:03.871Z,51.41
2022-08-04T04:25:31.597Z,51.42
2022-08-04T04:28:44.488Z,51.41
2022-08-04T04:29:34.491Z,51.40
2022-08-04T04:30:48.990Z,51.41
2022-08-04T04:32:18.995Z,51.40
2022-08-04T04:33:34.378Z,51.38
2022-08-04T04:34:47.118Z,51.40
2022-08-04T04:37:35.266Z,51.31
2022-08-04T04:38:59.412Z,51.37
2022-08-04T04:40:23.638Z,51.35
2022-08-04T04:41:38.871Z,51.29
2022-08-04T04:43:05.712Z,51.26
2022-08-04T04:45:50.879Z,51.26
2022-08-04T04:46:57.033Z,51.26
2022-08-04T04:48:36.159Z,51.30
2022-08-04T04:50:00.704Z,51.30
2022-08-04T04:51:26.651Z,51.26
2022-08-04T04:52:44.533Z,51.23
2022-08-04T04:54:05.686Z,51.20
2022-08-04T04:55:15.111Z,51.21
2022-08-04T04:56:30.191Z,51.37
2022-08-04T04:57:54.287Z,51.60
2022-08-04T04:58:39.091Z,51.88
2022-08-04T04:59:45.857Z,52.16
2022-08-04T05:02:46.812Z,52.42
2022-08-04T05:04:01.328Z,52.40
2022-08-04T05:05:27.770Z,52.29
2022-08-04T05:07:07.623Z,52.39
2022-08-04T05:08:45.397Z,52.32
2022-08-04T05:09:50.666Z,52.30
2022-08-04T05:11:05.903Z,52.25
2022-08-04T05:14:08.943Z,52.22
2022-08-04T05:14:38.595Z,52.07
2022-08-04T05:15:55.995Z,52.08
2022-08-04T05:17:08.027Z,52.02
2022-08-04T05:18:14.138Z,51.97
2022-08-04T05:19:29.218Z,51.91
2022-08-04T05:20:37.399Z,51.91
2022-08-04T05:21:46.338Z,51.77
2022-08-04T05:23:01.370Z,51.81
2022-08-04T05:24:05.933Z,51.80
2022-08-04T05:25:28.005Z,51.77
2022-08-04T05:26:33.241Z,51.75
2022-08-04T05:27:41.024Z,51.72
2022-08-04T05:28:47.079Z,51.72
2022-08-04T05:29:54.133Z,51.67
2022-08-04T05:32:13.360Z,51.69
2022-08-04T05:34:48.857Z,51.57
2022-08-04T05:36:19.058Z,51.58
2022-08-04T05:37:05.109Z,51.53
2022-08-04T05:38:08.753Z,51.50
2022-08-04T05:40:32.021Z,51.42
2022-08-04T05:41:45.807Z,51.35
2022-08-04T05:42:39.521Z,51.37
2022-08-04T05:43:43.311Z,51.32
2022-08-04T05:44:50.740Z,51.25
2022-08-04T05:45:50.828Z,51.17
2022-08-04T05:46:55.812Z,51.11
2022-08-04T05:47:59.390Z,51.09
2022-08-04T05:49:02.537Z,51.15
2022-08-04T05:50:06.125Z,51.41
2022-08-04T05:51:08.966Z,51.58
2022-08-04T05:52:11.527Z,51.85
2022-08-04T05:53:14.520Z,52.06
2022-08-04T05:54:17.158Z,52.17
2022-08-04T05:55:57.116Z,52.42
2022-08-04T05:56:24.546Z,52.80
2022-08-04T05:57:27.724Z,53.05
2022-08-04T05:58:30.282Z,53.33
2022-08-04T05:59:34.428Z,53.73
2022-08-04T06:00:41.048Z,53.99
2022-08-04T06:01:55.909Z,54.30
2022-08-04T06:03:59.466Z,54.64
2022-08-04T06:05:01.962Z,54.65
2022-08-04T06:06:05.551Z,54.60
2022-08-04T06:07:09.050Z,54.68
2022-08-04T06:08:13.439Z,54.72
2022-08-04T06:09:16.247Z,54.90
2022-08-04T06:10:29.223Z,55.00
2022-08-04T06:12:45.319Z,55.29
2022-08-04T06:13:52.920Z,55.37
2022-08-04T06:14:56.541Z,55.52
2022-08-04T06:16:00.609Z,55.63
2022-08-04T06:17:05.539Z,55.81
2022-08-04T06:18:33.714Z,55.88
2022-08-04T06:20:00.444Z,56.18
2022-08-04T06:20:23.135Z,56.45
2022-08-04T06:21:26.577Z,56.55
2022-08-04T06:22:29.111Z,56.51
2022-08-04T06:23:31.273Z,56.42
2022-08-04T06:24:34.865Z,56.33
2022-08-04T06:26:53.302Z,55.95
2022-08-04T06:27:57.450Z,55.79
2022-08-04T06:28:59.893Z,55.68
2022-08-04T06:30:02.855Z,55.26
2022-08-04T06:32:26.931Z,55.26
2022-08-04T06:32:31.689Z,55.23
2022-08-04T06:33:15.177Z,55.07
2022-08-04T06:34:17.484Z,54.99
2022-08-04T06:35:20.424Z,54.83
2022-08-04T06:36:22.961Z,54.75
2022-08-04T06:37:42.580Z,54.61
2022-08-04T06:38:31.372Z,54.53
2022-08-04T06:39:33.748Z,54.42
2022-08-04T06:40:37.361Z,54.34
2022-08-04T06:42:14.817Z,54.22
2022-08-04T06:42:47.890Z,54.12
2022-08-04T06:43:50.169Z,53.90
2022-08-04T06:44:55.374Z,53.93
2022-08-04T06:45:57.992Z,53.89
2022-08-04T06:47:01.461Z,53.89
2022-08-04T06:48:13.398Z,53.81
2022-08-04T06:49:17.218Z,53.70
2022-08-04T06:51:32.711Z,53.40
2022-08-04T06:51:37.013Z,53.48
2022-08-04T06:52:30.346Z,53.40
2022-08-04T06:53:35.189Z,53.38
2022-08-04T06:54:38.025Z,53.43
2022-08-04T06:55:40.916Z,53.45
2022-08-04T06:56:43.478Z,53.54
2022-08-04T06:57:45.909Z,53.63
2022-08-04T06:58:48.279Z,53.70
2022-08-04T06:59:53.374Z,53.76
2022-08-04T07:00:55.800Z,53.76
2022-08-04T07:02:00.015Z,53.79
2022-08-04T07:03:03.184Z,53.83
2022-08-04T07:04:05.537Z,53.82
2022-08-04T07:05:08.209Z,54.04
2022-08-04T07:06:13.974Z,54.17
2022-08-04T07:07:16.926Z,54.27
2022-08-04T07:08:20.317Z,54.38
2022-08-04T07:09:22.696Z,54.41
2022-08-04T07:10:28.635Z,54.47
2022-08-04T07:11:44.168Z,54.50
2022-08-04T07:12:36.825Z,54.50
2022-08-04T07:13:44.688Z,54.57
2022-08-04T07:14:44.062Z,54.63
2022-08-04T07:15:46.984Z,54.69
2022-08-04T07:16:49.346Z,54.77
2022-08-04T07:17:52.628Z,54.81
2022-08-04T07:18:55.199Z,54.79
2022-08-04T07:19:58.143Z,54.87
2022-08-04T07:21:01.061Z,54.88
2022-08-04T07:22:17.614Z,54.89
2022-08-04T07:23:10.892Z,54.91
2022-08-04T07:24:15.508Z,54.77
2022-08-04T07:25:18.180Z,54.72
2022-08-04T07:26:29.368Z,54.65
2022-08-04T07:27:48.530Z,54.60
2022-08-04T07:28:36.730Z,54.57
2022-08-04T07:29:39.069Z,54.62
2022-08-04T07:30:41.561Z,54.67
2022-08-04T07:31:44.371Z,54.79
2022-08-04T07:32:47.233Z,54.81
2022-08-04T07:34:17.009Z,54.85
2022-08-04T07:34:54.897Z,54.91
2022-08-04T07:36:05.296Z,54.79
2022-08-04T07:37:03.702Z,54.90
2022-08-04T07:38:09.620Z,54.98
2022-08-04T07:39:11.233Z,55.03
2022-08-04T07:40:16.127Z,55.00
2022-08-04T07:41:39.294Z,55.00
2022-08-04T07:42:28.948Z,54.94
2022-08-04T07:43:31.388Z,54.74
2022-08-04T07:44:34.929Z,54.83
2022-08-04T07:45:38.178Z,54.83
2022-08-04T07:46:41.726Z,54.75
2022-08-04T07:48:04.723Z,54.64
2022-08-04T07:48:48.738Z,54.58
2022-08-04T07:49:57.098Z,54.43
2022-08-04T07:50:56.129Z,54.30
2022-08-04T07:51:59.008Z,54.25
2022-08-04T07:53:52.581Z,54.09
2022-08-04T07:54:07.853Z,53.95
2022-08-04T07:55:10.431Z,53.76
2022-08-04T07:56:13.290Z,53.65
2022-08-04T07:58:30.187Z,53.56
2022-08-04T07:59:32.805Z,53.52
2022-08-04T08:00:35.404Z,53.53
2022-08-04T08:01:37.775Z,53.51
2022-08-04T08:04:14.861Z,53.38
2022-08-04T08:05:18.505Z,53.43
2022-08-04T08:07:35.314Z,53.43
2022-08-04T08:08:38.742Z,53.47
2022-08-04T08:09:41.220Z,53.37
2022-08-04T08:10:47.813Z,53.28
2022-08-04T08:12:38.550Z,53.22
2022-08-04T08:12:56.581Z,53.17
2022-08-04T08:13:59.360Z,53.14
2022-08-04T08:15:04.790Z,53.09
2022-08-04T08:16:07.729Z,53.09
2022-08-04T08:17:10.066Z,53.03
2022-08-04T08:18:12.945Z,52.86
2022-08-04T08:19:15.978Z,52.83
2022-08-04T08:20:29.660Z,52.79
2022-08-04T08:21:23.403Z,52.84
2022-08-04T08:22:25.972Z,52.81
2022-08-04T08:23:29.840Z,52.76
2022-08-04T08:24:36.907Z,52.70
2022-08-04T08:25:40.435Z,52.68
2022-08-04T08:26:43.581Z,52.58
2022-08-04T08:27:55.968Z,52.50
2022-08-04T08:28:51.546Z,52.21
2022-08-04T08:29:55.072Z,52.21
2022-08-04T08:30:59.396Z,52.44
2022-08-04T08:32:08.086Z,52.37
2022-08-04T08:33:08.952Z,52.27
2022-08-04T08:34:11.775Z,52.31
2022-08-04T08:35:16.187Z,52.35
2022-08-04T08:36:38.525Z,52.40
2022-08-04T08:39:30.126Z,52.39
2022-08-04T08:40:42.176Z,52.35
2022-08-04T08:42:08.333Z,52.15
2022-08-04T08:44:00.629Z,52.13
2022-08-04T08:44:38.456Z,52.14
2022-08-04T08:46:38.872Z,52.10
2022-08-04T08:48:06.193Z,52.11
2022-08-04T08:49:03.899Z,52.07
2022-08-04T08:50:27.141Z,52.03
2022-08-04T08:51:54.086Z,51.86
2022-08-04T08:53:22.194Z,51.83
2022-08-04T08:54:43.896Z,51.90
2022-08-04T08:56:12.388Z,51.89
2022-08-04T08:57:35.293Z,51.90
2022-08-04T08:58:50.865Z,51.76
2022-08-04T09:00:06.535Z,51.65
2022-08-04T09:01:25.422Z,51.84
2022-08-04T09:03:04.781Z,51.91
2022-08-04T09:04:23.257Z,51.92
2022-08-04T09:05:27.982Z,51.88
2022-08-04T09:07:08.217Z,51.74
2022-08-04T09:08:38.635Z,51.71
2022-08-04T09:09:50.586Z,51.72
2022-08-04T09:10:56.474Z,51.64
2022-08-04T09:12:30.170Z,51.65
2022-08-04T09:13:35.462Z,51.65
2022-08-04T09:15:05.438Z,51.58
2022-08-04T09:16:17.458Z,51.67
2022-08-04T09:17:29.989Z,51.78
2022-08-04T09:18:39.629Z,51.84
2022-08-04T09:19:45.237Z,51.82
2022-08-04T09:20:57.982Z,51.83
2022-08-04T09:22:04.327Z,51.86
2022-08-04T09:23:21.935Z,51.85
2022-08-04T09:25:02.241Z,51.67
2022-08-04T09:27:57.235Z,51.57
2022-08-04T09:29:15.782Z,51.49
2022-08-04T09:30:28.858Z,51.54
2022-08-04T09:31:51.546Z,51.42
2022-08-04T09:33:06.868Z,51.30
2022-08-04T09:34:22.377Z,51.43
2022-08-04T09:36:58.275Z,51.48
2022-08-04T09:38:07.168Z,51.46
2022-08-04T09:39:31.227Z,51.55
2022-08-04T09:40:55.194Z,51.59
2022-08-04T09:42:01.179Z,51.60
2022-08-04T09:43:29.418Z,51.64
2022-08-04T09:46:16.980Z,51.71
2022-08-04T09:47:23.027Z,51.69
2022-08-04T09:48:29.642Z,51.70
2022-08-04T09:49:41.688Z,51.71
2022-08-04T09:50:48.392Z,51.78
2022-08-04T09:51:57.495Z,51.78
2022-08-04T09:53:14.683Z,51.84
2022-08-04T09:54:43.461Z,51.70
2022-08-04T09:55:53.393Z,51.60
2022-08-04T09:57:19.804Z,51.62
2022-08-04T09:58:55.048Z,51.60
2022-08-04T10:01:22.920Z,51.33
2022-08-04T10:02:23.451Z,51.36
2022-08-04T10:03:26.778Z,51.36
2022-08-04T10:04:31.466Z,51.38
2022-08-04T10:05:44.870Z,51.41
2022-08-04T10:07:23.062Z,51.42
2022-08-04T10:10:36.805Z,51.47
2022-08-04T10:12:04.357Z,51.51
2022-08-04T10:13:22.555Z,51.45
2022-08-04T10:14:57.630Z,51.69
2022-08-04T10:16:12.879Z,51.69
2022-08-04T10:17:34.626Z,51.68
2022-08-04T10:18:56.214Z,51.59
2022-08-04T10:20:33.992Z,51.42
2022-08-04T10:21:59.901Z,51.32
2022-08-04T10:23:17.641Z,51.04
2022-08-04T10:24:40.311Z,51.07
2022-08-04T10:26:06.178Z,51.19
2022-08-04T10:27:15.972Z,51.30
2022-08-04T10:28:20.544Z,51.36
2022-08-04T10:29:30.327Z,51.38
2022-08-04T10:30:34.182Z,51.46
2022-08-04T10:31:58.556Z,51.54
2022-08-04T10:33:13.723Z,51.63
2022-08-04T10:34:20.961Z,51.63
2022-08-04T10:35:24.931Z,51.62
2022-08-04T10:36:30.846Z,51.79
2022-08-04T10:38:10.893Z,51.79
2022-08-04T10:39:42.181Z,51.47
2022-08-04T10:40:27.488Z,51.32
2022-08-04T10:41:36.201Z,51.23
2022-08-04T10:42:42.583Z,51.20
2022-08-04T10:44:08.679Z,51.15
2022-08-04T10:45:18.783Z,51.13
2022-08-04T10:46:33.735Z,51.07
2022-08-04T10:47:40.338Z,51.04
2022-08-04T10:49:06.131Z,51.01
2022-08-04T10:50:09.637Z,51.04
2022-08-04T10:51:29.301Z,51.18
2022-08-04T10:52:47.528Z,51.18
2022-08-04T10:55:22.364Z,51.10
2022-08-04T10:56:30.462Z,51.05
2022-08-04T10:58:54.680Z,50.88
2022-08-04T11:00:03.824Z,50.76
2022-08-04T11:01:10.566Z,50.60
2022-08-04T11:02:34.934Z,50.54
2022-08-04T11:03:39.929Z,50.61
2022-08-04T11:04:47.854Z,50.64
2022-08-04T11:05:56.878Z,50.59
2022-08-04T11:06:59.408Z,50.53
2022-08-04T11:08:10.041Z,50.60
2022-08-04T11:09:13.950Z,50.55
2022-08-04T11:10:15.306Z,50.44
2022-08-04T11:11:56.866Z,50.43
2022-08-04T11:12:43.767Z,50.44
2022-08-04T11:14:01.822Z,50.50
2022-08-04T11:15:08.368Z,50.48
2022-08-04T11:17:41.453Z,50.49
2022-08-04T11:19:06.138Z,50.44
2022-08-04T11:20:34.937Z,50.47
2022-08-04T11:22:52.034Z,50.40
2022-08-04T11:24:10.506Z,50.46
2022-08-04T11:25:28.408Z,50.52
2022-08-04T11:26:53.205Z,50.59
2022-08-04T11:28:26.280Z,50.71
2022-08-04T11:29:42.312Z,50.81
2022-08-04T11:31:00.274Z,50.91
2022-08-04T11:32:05.688Z,51.25
2022-08-04T11:33:15.864Z,51.63
2022-08-04T11:34:23.124Z,52.03
2022-08-04T11:35:34.171Z,52.06
2022-08-04T11:36:43.153Z,52.07
2022-08-04T11:37:51.426Z,52.10
2022-08-04T11:39:08.866Z,52.26
2022-08-04T11:40:24.180Z,52.22
2022-08-04T11:42:57.596Z,52.23
2022-08-04T11:44:03.825Z,52.14
2022-08-04T11:46:37.193Z,51.64
2022-08-04T11:47:55.426Z,51.48
2022-08-04T11:49:09.646Z,51.40
2022-08-04T11:51:40.659Z,50.63
2022-08-04T11:52:42.926Z,50.50
2022-08-04T11:53:45.182Z,50.47
2022-08-04T11:54:52.829Z,50.26
2022-08-04T11:56:06.908Z,50.28
2022-08-04T11:56:58.923Z,49.85
2022-08-04T11:58:03.650Z,49.81
2022-08-04T11:59:06.485Z,49.83
2022-08-04T12:01:57.013Z,49.80
2022-08-04T12:04:58.882Z,49.69
2022-08-04T12:06:21.931Z,49.67
2022-08-04T12:07:55.733Z,49.73
2022-08-04T12:09:30.860Z,49.75
2022-08-04T12:10:42.272Z,49.83
2022-08-04T12:12:08.907Z,49.93
2022-08-04T12:13:35.289Z,49.98
2022-08-04T12:14:44.695Z,50.23
2022-08-04T12:15:56.736Z,51.26
2022-08-04T12:17:01.766Z,52.20
2022-08-04T12:18:11.254Z,53.49
2022-08-04T12:19:21.913Z,53.95
2022-08-04T12:20:31.923Z,54.20
2022-08-04T12:21:37.593Z,53.55
2022-08-04T12:22:43.230Z,53.20
2022-08-04T12:23:45.805Z,52.93
2022-08-04T12:25:00.964Z,52.59
2022-08-04T12:26:10.826Z,52.23
2022-08-04T12:29:09.591Z,52.36
2022-08-04T12:31:00.011Z,52.00
2022-08-04T12:32:26.089Z,51.43
2022-08-04T12:35:04.708Z,51.28
2022-08-04T12:36:19.106Z,52.68
2022-08-04T12:37:57.706Z,53.02
2022-08-04T12:39:19.224Z,53.44
2022-08-04T12:40:29.992Z,53.74
2022-08-04T12:42:59.813Z,54.41
2022-08-04T12:44:36.674Z,54.49
2022-08-04T12:45:15.327Z,54.76
2022-08-04T12:46:26.835Z,54.74
2022-08-04T12:47:30.431Z,54.66
2022-08-04T12:48:35.403Z,54.92
2022-08-04T12:49:39.015Z,54.93
2022-08-04T12:50:42.409Z,55.04
2022-08-04T12:52:06.109Z,55.05
2022-08-04T12:53:01.968Z,55.02
2022-08-04T12:53:56.396Z,55.03
2022-08-04T12:54:58.704Z,55.08
2022-08-04T12:56:02.359Z,54.96
2022-08-04T12:57:07.573Z,54.79
2022-08-04T12:58:13.367Z,54.86
2022-08-04T12:59:17.886Z,55.13
2022-08-04T13:02:10.989Z,55.25
2022-08-04T13:02:42.681Z,55.38
2022-08-04T13:03:57.762Z,55.51
2022-08-04T13:05:03.653Z,55.74
2022-08-04T13:06:06.716Z,55.85
2022-08-04T13:07:18.672Z,55.97
2022-08-04T13:08:22.346Z,55.93
2022-08-04T13:09:28.194Z,55.76
2022-08-04T13:10:31.356Z,55.73
2022-08-04T13:11:36.485Z,55.74
2022-08-04T13:12:39.832Z,55.69
2022-08-04T13:13:42.443Z,55.81
2022-08-04T13:14:44.808Z,55.77
2022-08-04T13:17:21.299Z,56.08
2022-08-04T13:19:41.398Z,56.59
2022-08-04T13:20:44.337Z,56.95
2022-08-04T13:21:50.528Z,56.96
2022-08-04T13:23:04.840Z,56.97
2022-08-04T13:24:22.665Z,57.14
2022-08-04T13:26:40.820Z,57.38
2022-08-04T13:26:44.109Z,57.18
2022-08-04T13:27:25.809Z,57.09
2022-08-04T13:28:28.838Z,57.38
2022-08-04T13:31:02.013Z,57.14
2022-08-04T13:32:05.472Z,57.15
2022-08-04T13:33:08.072Z,57.24
2022-08-04T13:34:19.208Z,57.11
2022-08-04T13:35:15.918Z,57.14
2022-08-04T13:36:18.773Z,57.13
2022-08-04T13:37:26.818Z,57.07
2022-08-04T13:38:29.732Z,56.88
2022-08-04T13:39:32.210Z,56.76
2022-08-04T13:40:34.852Z,56.70
2022-08-04T13:41:39.198Z,56.64
2022-08-04T13:42:46.336Z,56.79
2022-08-04T13:44:17.892Z,57.01
2022-08-04T13:44:59.150Z,57.25
2022-08-04T13:46:27.920Z,57.42
2022-08-04T13:48:44.061Z,57.93
2022-08-04T13:50:11.741Z,57.97
2022-08-04T13:51:17.453Z,57.84
2022-08-04T13:52:19.822Z,57.74
2022-08-04T13:53:24.184Z,57.68
2022-08-04T13:55:48.001Z,57.73
2022-08-04T13:56:55.723Z,57.62
2022-08-04T13:58:03.737Z,57.71
2022-08-04T13:59:08.586Z,57.84
2022-08-04T14:00:14.206Z,57.84
2022-08-04T14:01:22.019Z,57.76
2022-08-04T14:02:30.953Z,57.75
2022-08-04T14:03:54.037Z,57.70
2022-08-04T14:04:48.908Z,57.60
2022-08-04T14:06:12.297Z,57.59
2022-08-04T14:07:21.214Z,57.56
2022-08-04T14:09:36.068Z,57.55
2022-08-04T14:10:40.096Z,57.19
2022-08-04T14:12:56.979Z,56.82
2022-08-04T14:14:00.893Z,57.00
2022-08-04T14:15:06.115Z,56.78
2022-08-04T14:17:32.110Z,56.84
2022-08-04T14:18:34.806Z,57.15
2022-08-04T14:19:49.903Z,57.26
2022-08-04T14:22:32.465Z,57.35
2022-08-04T14:23:47.161Z,57.25
2022-08-04T14:24:45.331Z,57.20
2022-08-04T14:25:48.609Z,56.90
2022-08-04T14:26:51.336Z,56.76
2022-08-04T14:27:55.393Z,56.60
2022-08-04T14:29:27.421Z,56.71
2022-08-04T14:30:29.768Z,56.70
2022-08-04T14:31:32.195Z,56.55
2022-08-04T14:32:35.718Z,56.42
2022-08-04T14:34:02.380Z,56.53
2022-08-04T14:34:45.799Z,56.59
2022-08-04T14:37:18.431Z,56.73
2022-08-04T14:38:16.325Z,56.83
2022-08-04T14:39:19.145Z,56.89
2022-08-04T14:40:30.805Z,56.90
2022-08-04T14:41:29.712Z,57.00
2022-08-04T14:43:57.549Z,57.14
2022-08-04T14:45:13.118Z,57.13
2022-08-04T14:46:17.405Z,57.17
2022-08-04T14:47:32.435Z,57.29
2022-08-04T14:48:38.557Z,57.42
2022-08-04T14:49:39.516Z,57.57
2022-08-04T14:50:44.691Z,57.79
2022-08-04T14:51:56.351Z,57.82
2022-08-04T14:53:09.288Z,57.90
2022-08-04T14:54:18.190Z,57.91
2022-08-04T14:55:23.828Z,57.82
2022-08-04T14:56:46.010Z,57.88
2022-08-04T14:57:34.656Z,57.93
2022-08-04T14:58:39.985Z,58.19
2022-08-04T15:01:02.432Z,58.34
2022-08-04T15:02:08.468Z,58.27
2022-08-04T15:03:11.142Z,58.41
2022-08-04T15:04:13.620Z,58.48
2022-08-04T15:05:55.323Z,58.41
2022-08-04T15:06:26.727Z,58.21
2022-08-04T15:07:29.943Z,58.18
2022-08-04T15:08:32.494Z,58.31
2022-08-04T15:09:34.859Z,58.21
2022-08-04T15:10:37.142Z,58.12
2022-08-04T15:11:43.292Z,58.11
2022-08-04T15:12:43.837Z,58.15
2022-08-04T15:13:46.085Z,58.15
2022-08-04T15:14:48.598Z,57.96
2022-08-04T15:16:06.191Z,57.94
2022-08-04T15:16:55.260Z,57.77
2022-08-04T15:17:57.736Z,57.75
2022-08-04T15:19:01.242Z,57.70
2022-08-04T15:20:05.926Z,57.86
2022-08-04T15:21:08.918Z,57.63
2022-08-04T15:22:17.546Z,57.44
2022-08-04T15:23:16.716Z,57.49
2022-08-04T15:24:20.234Z,57.40
2022-08-04T15:25:22.882Z,57.38
2022-08-04T15:26:28.715Z,57.56
2022-08-04T15:27:33.970Z,57.64
2022-08-04T15:28:37.712Z,57.48
2022-08-04T15:30:00.867Z,57.37
2022-08-04T15:30:47.926Z,57.37
2022-08-04T15:32:07.516Z,57.54
2022-08-04T15:32:59.254Z,57.27
2022-08-04T15:34:01.980Z,57.14
2022-08-04T15:36:44.900Z,57.35
2022-08-04T15:37:52.854Z,57.46
2022-08-04T15:39:14.049Z,57.38
2022-08-04T15:40:40.793Z,57.44
2022-08-04T15:43:31.188Z,56.60
2022-08-04T15:44:52.544Z,56.54
2022-08-04T15:46:41.224Z,56.55
2022-08-04T15:47:04.692Z,56.65
2022-08-04T15:48:13.610Z,56.58
2022-08-04T15:49:20.015Z,56.87
2022-08-04T15:50:28.183Z,57.02
2022-08-04T15:51:32.162Z,57.00
2022-08-04T15:54:23.504Z,56.67
2022-08-04T15:57:20.078Z,56.54
2022-08-04T15:58:22.576Z,56.54
2022-08-04T16:00:00.757Z,56.53
2022-08-04T16:01:06.915Z,56.53
2022-08-04T16:03:58.893Z,56.75
2022-08-04T16:04:51.538Z,56.72
2022-08-04T16:05:56.002Z,56.76
2022-08-04T16:07:04.828Z,57.00
2022-08-04T16:08:11.943Z,56.99
2022-08-04T16:09:21.851Z,57.19
2022-08-04T16:10:33.724Z,57.30
2022-08-04T16:11:36.803Z,57.24
2022-08-04T16:14:08.347Z,57.39
2022-08-04T16:16:49.424Z,57.60
2022-08-04T16:17:53.533Z,57.64
2022-08-04T16:20:20.161Z,58.03
2022-08-04T16:21:24.788Z,58.05
2022-08-04T16:22:38.714Z,57.98
2022-08-04T16:24:02.328Z,57.94
2022-08-04T16:25:01.468Z,57.94
2022-08-04T16:26:03.915Z,57.99
2022-08-04T16:28:38.468Z,58.14
2022-08-04T16:29:44.498Z,58.24
2022-08-04T16:30:48.848Z,58.31
2022-08-04T16:32:12.071Z,58.40
2022-08-04T16:33:15.039Z,58.40
2022-08-04T16:34:48.274Z,58.45
2022-08-04T16:37:01.526Z,58.67
2022-08-04T16:38:14.146Z,58.84
2022-08-04T16:39:21.418Z,58.87
2022-08-04T16:40:36.589Z,58.95
2022-08-04T16:41:39.563Z,58.86
2022-08-04T16:42:44.272Z,58.73
2022-08-04T16:43:46.745Z,58.94
2022-08-04T16:46:22.590Z,59.00
2022-08-04T16:47:49.650Z,58.92
2022-08-04T16:49:08.217Z,59.00
2022-08-04T16:50:11.161Z,59.06
2022-08-04T16:51:15.368Z,59.06
2022-08-04T16:52:18.602Z,59.09
2022-08-04T16:54:04.126Z,58.72
2022-08-04T16:54:29.512Z,59.24
2022-08-04T16:55:32.286Z,59.13
2022-08-04T16:56:35.673Z,58.91
2022-08-04T16:57:38.988Z,58.77